Abney, South Carolina
Current Conditions -  °F | °C
As of 3:55 AM on Sunday 23 Nov 2014 (Local Time) from KCDN Reporting Station
Light Rain Light Rain  
Wind Chill: 45°   Ceiling: 4300
Heat Index: 45°   Visibility: 4mi
Dew Point: 45°   Wind: 0mph
Humidity: 100%   Direction: NA
Pressure: 30.26"   Gusts: NA
Location:  34.5438°N, 80.5351°W
Report Text: KCDN 230855Z AUTO 00000KT 4SM -RA FEW025 SCT034 BKN043 07/07 A3026 RMK AO2 P0006 TSNO
Loading
Personal Weather Stations






























Interactive Weather Map New forecast layout! Learn more

10-Day Weather Forecast

Advertisements
Track Severe Weather on mobile